createdAt,value
2023-02-06T00:00:01.866Z,21.27
2023-02-06T00:02:37.781Z,19.88
2023-02-06T00:07:43.560Z,23.37
2023-02-06T00:10:16.864Z,22.52
2023-02-06T00:12:51.209Z,21.83
2023-02-06T00:15:24.399Z,19.95
2023-02-06T00:17:57.284Z,21.05
2023-02-06T00:20:30.211Z,26.98
2023-02-06T00:25:36.135Z,18.23
2023-02-06T00:28:10.502Z,21.75
2023-02-06T00:30:46.559Z,19.63
2023-02-06T00:33:21.240Z,23.02
2023-02-06T00:35:54.260Z,14.45
2023-02-06T00:38:27.337Z,19.95
2023-02-06T00:41:00.601Z,16.83
2023-02-06T00:43:34.867Z,17.05
2023-02-06T00:46:07.635Z,30.15
2023-02-06T00:48:40.691Z,15.10
2023-02-06T00:53:46.293Z,23.13
2023-02-06T00:56:19.481Z,15.15
2023-02-06T00:58:54.512Z,15.82
2023-02-06T01:01:27.781Z,17.88
2023-02-06T01:04:01.051Z,18.95
2023-02-06T01:06:34.126Z,19.60
2023-02-06T01:11:39.774Z,11.70
2023-02-06T01:14:15.902Z,18.00
2023-02-06T01:16:49.505Z,15.25
2023-02-06T01:19:23.013Z,17.60
2023-02-06T01:21:55.994Z,16.20
2023-02-06T01:24:28.994Z,18.48
2023-02-06T01:29:36.473Z,18.98
2023-02-06T01:32:09.389Z,16.98
2023-02-06T01:37:14.996Z,12.55
2023-02-06T01:39:47.930Z,18.52
2023-02-06T01:42:21.062Z,20.55
2023-02-06T01:45:28.367Z,13.40
2023-02-06T01:48:04.881Z,19.10
2023-02-06T01:50:40.580Z,18.10
2023-02-06T01:53:18.979Z,25.65
2023-02-06T01:55:53.999Z,17.17
2023-02-06T01:58:31.411Z,18.23
2023-02-06T02:01:07.299Z,23.58
2023-02-06T02:03:45.710Z,18.25
2023-02-06T02:06:23.673Z,17.80
2023-02-06T02:08:58.817Z,17.40
2023-02-06T02:11:34.383Z,13.90
2023-02-06T02:14:10.144Z,18.42
2023-02-06T02:16:53.489Z,15.90
2023-02-06T02:19:55.658Z,14.85
2023-02-06T02:23:02.590Z,11.55
2023-02-06T02:26:03.434Z,10.93
2023-02-06T02:29:23.922Z,9.48
2023-02-06T02:32:19.269Z,18.00
2023-02-06T02:35:06.404Z,12.88
2023-02-06T02:37:47.832Z,11.02
2023-02-06T02:40:29.657Z,11.35
2023-02-06T02:43:12.856Z,13.55
2023-02-06T02:45:52.543Z,12.20
2023-02-06T02:48:31.158Z,14.45
2023-02-06T02:51:05.809Z,19.20
2023-02-06T02:53:38.779Z,9.85
2023-02-06T02:56:17.721Z,9.45
2023-02-06T02:58:54.603Z,11.90
2023-02-06T03:01:32.840Z,10.38
2023-02-06T03:04:13.259Z,12.43
2023-02-06T03:07:03.982Z,14.10
2023-02-06T03:09:47.567Z,8.80
2023-02-06T03:12:25.233Z,11.85
2023-02-06T03:15:02.480Z,10.43
2023-02-06T03:17:39.195Z,8.63
2023-02-06T03:20:19.499Z,12.93
2023-02-06T03:22:56.594Z,9.40
2023-02-06T03:25:37.171Z,8.30
2023-02-06T03:28:18.142Z,12.75
2023-02-06T03:30:57.657Z,12.90
2023-02-06T03:33:36.721Z,8.85
2023-02-06T03:36:15.406Z,9.13
2023-02-06T03:38:52.208Z,11.88
2023-02-06T03:41:30.511Z,7.03
2023-02-06T03:44:07.385Z,11.25
2023-02-06T03:46:42.755Z,7.78
2023-02-06T03:49:17.797Z,8.45
2023-02-06T03:51:54.795Z,10.57
2023-02-06T03:54:31.593Z,5.72
2023-02-06T03:57:07.740Z,6.38
2023-02-06T03:59:40.692Z,10.52
2023-02-06T04:04:47.671Z,12.52
2023-02-06T04:07:25.925Z,6.72
2023-02-06T04:10:00.015Z,7.82
2023-02-06T04:12:33.114Z,7.22
2023-02-06T04:17:53.636Z,7.80
2023-02-06T04:20:32.013Z,8.95
2023-02-06T04:25:38.987Z,6.93
2023-02-06T04:28:12.019Z,7.93
2023-02-06T04:33:20.482Z,7.93
2023-02-06T04:35:53.253Z,7.28
2023-02-06T04:38:26.089Z,8.80
2023-02-06T04:41:04.778Z,10.38
2023-02-06T04:43:37.645Z,11.50
2023-02-06T04:46:10.590Z,8.50
2023-02-06T04:48:43.566Z,6.43
2023-02-06T04:53:49.249Z,8.82
2023-02-06T04:56:25.544Z,7.75
2023-02-06T04:58:58.534Z,5.15
2023-02-06T05:04:04.374Z,4.35
2023-02-06T05:09:11.108Z,5.32
2023-02-06T05:11:48.389Z,7.57
2023-02-06T05:14:21.468Z,6.50
2023-02-06T05:16:54.363Z,6.55
2023-02-06T05:19:27.249Z,8.98
2023-02-06T05:24:32.785Z,9.18
2023-02-06T05:29:39.711Z,11.15
2023-02-06T05:32:12.912Z,11.40
2023-02-06T05:34:46.225Z,8.70
2023-02-06T05:37:19.135Z,14.15
2023-02-06T05:42:26.196Z,9.98
2023-02-06T05:44:59.297Z,7.70
2023-02-06T05:47:35.297Z,10.23
2023-02-06T05:50:08.677Z,9.52
2023-02-06T05:52:42.040Z,19.50
2023-02-06T05:55:17.083Z,26.35
2023-02-06T05:57:51.675Z,11.63
2023-02-06T06:00:27.764Z,15.10
2023-02-06T06:03:00.654Z,14.45
2023-02-06T06:05:34.359Z,10.35
2023-02-06T06:08:07.242Z,11.50
2023-02-06T06:10:40.183Z,15.88
2023-02-06T06:15:50.592Z,16.05
2023-02-06T06:18:23.581Z,12.18
2023-02-06T06:20:56.532Z,14.40
2023-02-06T06:26:02.348Z,9.27
2023-02-06T06:31:12.774Z,12.88
2023-02-06T06:33:46.010Z,12.90
2023-02-06T06:39:23.422Z,13.35
2023-02-06T06:42:02.906Z,11.93
2023-02-06T06:44:44.669Z,12.27
2023-02-06T06:47:17.822Z,9.27
2023-02-06T06:50:12.916Z,11.13
2023-02-06T06:52:56.653Z,8.07
2023-02-06T06:55:45.146Z,11.90
2023-02-06T06:58:23.857Z,9.68
2023-02-06T07:01:01.337Z,10.25
2023-02-06T07:03:34.495Z,8.65
2023-02-06T07:06:07.722Z,17.75
2023-02-06T07:08:42.162Z,9.18
2023-02-06T07:11:16.981Z,12.43
2023-02-06T07:13:49.935Z,8.90
2023-02-06T07:16:24.813Z,9.82
2023-02-06T07:18:58.030Z,7.78
2023-02-06T07:21:31.340Z,9.68
2023-02-06T07:24:05.428Z,10.02
2023-02-06T07:26:38.488Z,9.25
2023-02-06T07:29:11.451Z,8.25
2023-02-06T07:31:48.073Z,10.35
2023-02-06T07:34:21.234Z,7.57
2023-02-06T07:36:54.098Z,7.68
2023-02-06T07:39:27.074Z,7.65
2023-02-06T07:44:38.996Z,9.18
2023-02-06T07:49:46.016Z,6.35
2023-02-06T07:54:53.135Z,8.00
2023-02-06T07:59:59.085Z,9.57
2023-02-06T08:02:33.218Z,6.18
2023-02-06T08:05:06.632Z,6.53
2023-02-06T08:07:39.577Z,7.72
2023-02-06T08:12:45.987Z,10.75
2023-02-06T08:15:19.678Z,7.35
2023-02-06T08:17:54.369Z,15.07
2023-02-06T08:20:29.218Z,12.75
2023-02-06T08:23:02.328Z,10.25
2023-02-06T08:25:37.990Z,7.53
2023-02-06T08:28:15.041Z,7.22
2023-02-06T08:30:50.626Z,8.55
2023-02-06T08:33:28.442Z,11.85
2023-02-06T08:36:03.090Z,11.20
2023-02-06T08:38:39.933Z,11.05
2023-02-06T08:41:24.011Z,6.40
2023-02-06T08:46:33.528Z,10.23
2023-02-06T08:49:12.413Z,8.75
2023-02-06T08:51:45.939Z,8.05
2023-02-06T08:54:20.661Z,9.52
2023-02-06T08:56:58.555Z,8.18
2023-02-06T08:59:31.572Z,9.15
2023-02-06T09:04:42.731Z,7.75
2023-02-06T09:07:17.343Z,8.82
2023-02-06T09:09:50.546Z,10.43
2023-02-06T09:14:56.353Z,8.65
2023-02-06T09:17:31.683Z,11.38
2023-02-06T09:20:06.279Z,7.53
2023-02-06T09:22:41.241Z,9.95
2023-02-06T09:25:14.008Z,10.75
2023-02-06T09:27:47.476Z,10.32
2023-02-06T09:30:20.577Z,12.30
2023-02-06T09:35:27.935Z,9.75
2023-02-06T09:38:01.151Z,14.48
2023-02-06T09:40:36.321Z,15.43
2023-02-06T09:43:13.129Z,11.23
2023-02-06T09:45:46.308Z,14.00
2023-02-06T09:51:08.275Z,13.68
2023-02-06T09:53:48.636Z,15.25
2023-02-06T09:56:30.960Z,11.57
2023-02-06T09:59:11.319Z,15.40
2023-02-06T10:01:48.800Z,15.48
2023-02-06T10:04:36.083Z,17.42
2023-02-06T10:07:22.404Z,14.73
2023-02-06T10:09:59.656Z,19.20
2023-02-06T10:12:38.819Z,17.38
2023-02-06T10:15:15.860Z,13.90
2023-02-06T10:17:54.554Z,16.73
2023-02-06T10:20:34.704Z,10.32
2023-02-06T10:23:16.730Z,21.42
2023-02-06T10:25:58.860Z,22.77
2023-02-06T10:28:35.337Z,15.20
2023-02-06T10:31:24.551Z,22.73
2023-02-06T10:34:29.659Z,13.43
2023-02-06T10:37:19.322Z,14.48
2023-02-06T10:40:12.066Z,19.17
2023-02-06T10:42:55.934Z,19.05
2023-02-06T10:45:39.961Z,20.13
2023-02-06T10:48:22.480Z,21.20
2023-02-06T10:51:01.086Z,16.25
2023-02-06T10:53:37.231Z,15.63
2023-02-06T10:56:14.289Z,20.48
2023-02-06T10:58:51.219Z,27.63
2023-02-06T11:01:27.217Z,19.90
2023-02-06T11:04:08.649Z,19.40
2023-02-06T11:06:46.871Z,14.55
2023-02-06T11:09:20.042Z,19.48
2023-02-06T11:11:58.128Z,13.40
2023-02-06T11:14:35.726Z,13.63
2023-02-06T11:17:08.772Z,16.88
2023-02-06T11:19:44.568Z,15.93
2023-02-06T11:22:27.119Z,22.27
2023-02-06T11:25:03.296Z,16.48
2023-02-06T11:27:37.780Z,20.63
2023-02-06T11:30:26.280Z,18.13
2023-02-06T11:33:04.915Z,14.57
2023-02-06T11:35:41.266Z,19.15
2023-02-06T11:38:17.084Z,25.83
2023-02-06T11:40:59.296Z,21.02
2023-02-06T11:43:48.570Z,22.90
2023-02-06T11:46:25.798Z,21.20
2023-02-06T11:49:23.012Z,18.92
2023-02-06T11:51:59.655Z,18.70
2023-02-06T11:54:35.181Z,20.33
2023-02-06T11:57:20.805Z,24.33
2023-02-06T11:59:57.925Z,21.25
2023-02-06T12:02:33.409Z,16.48
2023-02-06T12:05:12.972Z,19.05
2023-02-06T12:07:53.659Z,18.50
2023-02-06T12:10:42.237Z,20.77
2023-02-06T12:13:21.946Z,25.20
2023-02-06T12:16:02.282Z,17.95
2023-02-06T12:18:38.620Z,20.40
2023-02-06T12:21:15.208Z,20.85
2023-02-06T12:23:55.701Z,21.00
2023-02-06T12:26:32.173Z,26.27
2023-02-06T12:29:11.121Z,19.73
2023-02-06T12:31:54.631Z,17.70
2023-02-06T12:34:42.587Z,25.45
2023-02-06T12:37:21.476Z,16.17
2023-02-06T12:39:57.086Z,22.55
2023-02-06T12:42:40.536Z,18.77
2023-02-06T12:45:24.891Z,19.83
2023-02-06T12:48:05.933Z,18.15
2023-02-06T12:50:48.909Z,28.85
2023-02-06T12:53:30.013Z,20.15
2023-02-06T12:56:06.801Z,15.43
2023-02-06T12:58:51.761Z,18.60
2023-02-06T13:01:59.314Z,19.63
2023-02-06T13:04:37.933Z,22.80
2023-02-06T13:07:14.627Z,18.92
2023-02-06T13:09:51.228Z,22.50
2023-02-06T13:12:26.785Z,25.08
2023-02-06T13:15:03.341Z,20.45
2023-02-06T13:17:41.465Z,13.45
2023-02-06T13:20:18.132Z,16.70
2023-02-06T13:22:53.948Z,17.55
2023-02-06T13:25:54.263Z,21.05
2023-02-06T13:29:09.763Z,22.05
2023-02-06T13:31:42.774Z,14.07
2023-02-06T13:34:18.287Z,14.32
2023-02-06T13:36:55.840Z,26.10
2023-02-06T13:39:32.528Z,18.73
2023-02-06T13:42:40.255Z,26.50
2023-02-06T13:45:19.980Z,24.52
2023-02-06T13:48:34.112Z,21.48
2023-02-06T13:51:38.793Z,28.43
2023-02-06T13:54:51.440Z,20.23
2023-02-06T13:57:39.056Z,19.27
2023-02-06T14:00:16.646Z,11.63
2023-02-06T14:02:52.746Z,17.85
2023-02-06T14:05:32.952Z,20.40
2023-02-06T14:08:19.520Z,16.83
2023-02-06T14:11:13.825Z,27.60
2023-02-06T14:14:06.831Z,19.63
2023-02-06T14:16:50.511Z,15.35
2023-02-06T14:19:32.444Z,14.32
2023-02-06T14:22:18.003Z,23.90
2023-02-06T14:25:09.844Z,16.38
2023-02-06T14:27:59.309Z,22.85
2023-02-06T14:30:42.740Z,13.70
2023-02-06T14:33:44.509Z,19.48
2023-02-06T14:36:30.878Z,21.23
2023-02-06T14:39:32.262Z,21.05
2023-02-06T14:42:13.200Z,20.10
2023-02-06T14:44:53.981Z,19.83
2023-02-06T14:47:30.273Z,19.42
2023-02-06T14:50:03.333Z,12.90
2023-02-06T14:52:37.121Z,21.65
2023-02-06T14:55:31.886Z,18.92
2023-02-06T14:58:06.952Z,16.48
2023-02-06T15:00:41.176Z,16.90
2023-02-06T15:03:17.524Z,18.55
2023-02-06T15:06:05.032Z,11.80
2023-02-06T15:08:38.358Z,14.50
2023-02-06T15:11:21.216Z,19.48
2023-02-06T15:13:59.757Z,13.75
2023-02-06T15:16:46.279Z,18.38
2023-02-06T15:19:21.054Z,12.73
2023-02-06T15:21:59.452Z,14.63
2023-02-06T15:24:46.097Z,12.80
2023-02-06T15:27:27.907Z,17.67
2023-02-06T15:30:02.750Z,17.75
2023-02-06T15:32:41.084Z,17.38
2023-02-06T15:35:21.739Z,20.27
2023-02-06T15:37:56.731Z,22.33
2023-02-06T15:40:33.792Z,18.17
2023-02-06T15:43:16.541Z,25.42
2023-02-06T15:45:51.622Z,18.48
2023-02-06T15:48:31.821Z,16.40
2023-02-06T15:51:19.726Z,23.88
2023-02-06T15:54:05.700Z,20.77
2023-02-06T15:56:42.074Z,19.00
2023-02-06T15:59:19.372Z,19.08
2023-02-06T16:01:56.312Z,23.92
2023-02-06T16:04:33.774Z,20.23
2023-02-06T16:07:13.747Z,23.15
2023-02-06T16:09:51.735Z,17.85
2023-02-06T16:12:24.873Z,19.00
2023-02-06T16:14:59.693Z,22.90
2023-02-06T16:17:38.304Z,21.63
2023-02-06T16:20:35.662Z,24.40
2023-02-06T16:23:24.116Z,18.25
2023-02-06T16:26:09.749Z,18.98
2023-02-06T16:28:59.146Z,22.15
2023-02-06T16:31:39.963Z,20.77
2023-02-06T16:34:23.129Z,13.85
2023-02-06T16:36:57.682Z,18.27
2023-02-06T16:39:38.182Z,15.20
2023-02-06T16:42:16.603Z,24.10
2023-02-06T16:44:52.858Z,46.38
2023-02-06T16:47:26.057Z,26.80
2023-02-06T16:49:59.128Z,26.00
2023-02-06T16:52:40.269Z,21.08
2023-02-06T16:55:18.144Z,23.05
2023-02-06T16:58:00.117Z,20.70
2023-02-06T17:00:39.093Z,17.48
2023-02-06T17:03:16.375Z,12.68
2023-02-06T17:06:04.692Z,23.23
2023-02-06T17:08:42.926Z,9.75
2023-02-06T17:11:19.154Z,22.95
2023-02-06T17:13:52.230Z,16.88
2023-02-06T17:16:33.721Z,19.95
2023-02-06T17:19:21.340Z,17.55
2023-02-06T17:21:54.326Z,18.00
2023-02-06T17:24:29.475Z,10.50
2023-02-06T17:27:04.864Z,14.50
2023-02-06T17:29:48.599Z,14.30
2023-02-06T17:32:23.713Z,17.70
2023-02-06T17:34:58.242Z,16.50
2023-02-06T17:37:31.412Z,16.77
2023-02-06T17:40:06.800Z,11.60
2023-02-06T17:42:39.974Z,13.27
2023-02-06T17:45:13.243Z,18.17
2023-02-06T17:47:46.412Z,13.60
2023-02-06T17:50:22.615Z,13.68
2023-02-06T17:52:56.282Z,12.55
2023-02-06T17:55:33.870Z,11.20
2023-02-06T17:58:12.961Z,11.20
2023-02-06T18:00:49.456Z,12.32
2023-02-06T18:03:26.218Z,6.93
2023-02-06T18:06:00.436Z,12.40
2023-02-06T18:08:33.855Z,16.25
2023-02-06T18:11:21.192Z,9.93
2023-02-06T18:13:58.514Z,11.40
2023-02-06T18:16:43.963Z,8.18
2023-02-06T18:19:27.220Z,9.00
2023-02-06T18:22:02.533Z,10.43
2023-02-06T18:24:42.380Z,8.02
2023-02-06T18:27:27.588Z,9.90
2023-02-06T18:30:04.713Z,5.38
2023-02-06T18:32:41.131Z,10.30
2023-02-06T18:39:05.587Z,9.82
2023-02-06T18:41:58.907Z,7.25
2023-02-06T18:44:41.710Z,7.25
2023-02-06T18:47:16.723Z,10.57
2023-02-06T18:49:53.271Z,8.60
2023-02-06T18:52:26.444Z,10.75
2023-02-06T18:54:59.691Z,9.45
2023-02-06T18:57:32.899Z,10.68
2023-02-06T19:00:13.865Z,12.75
2023-02-06T19:02:47.702Z,10.02
2023-02-06T19:05:21.651Z,7.70
2023-02-06T19:07:55.048Z,9.85
2023-02-06T19:10:41.820Z,12.38
2023-02-06T19:13:17.416Z,8.55
2023-02-06T19:15:51.928Z,10.55
2023-02-06T19:18:37.603Z,7.40
2023-02-06T19:21:23.326Z,7.07
2023-02-06T19:23:59.288Z,10.02
2023-02-06T19:26:36.215Z,9.63
2023-02-06T19:29:34.455Z,10.32
2023-02-06T19:32:13.637Z,6.40
2023-02-06T19:34:49.789Z,9.13
2023-02-06T19:37:25.101Z,8.88
2023-02-06T19:40:03.500Z,5.63
2023-02-06T19:42:39.335Z,9.38
2023-02-06T19:45:12.801Z,11.63
2023-02-06T19:47:48.306Z,8.35
2023-02-06T19:50:23.466Z,8.15
2023-02-06T19:52:56.400Z,11.70
2023-02-06T19:55:31.260Z,8.35
2023-02-06T19:58:10.323Z,7.00
2023-02-06T20:00:56.856Z,7.30
2023-02-06T20:03:40.252Z,7.50
2023-02-06T20:06:15.284Z,9.63
2023-02-06T20:08:51.208Z,9.90
2023-02-06T20:11:25.236Z,9.95
2023-02-06T20:14:03.496Z,7.47
2023-02-06T20:16:42.357Z,14.30
2023-02-06T20:19:22.098Z,9.35
2023-02-06T20:21:59.955Z,16.55
2023-02-06T20:24:37.256Z,11.07
2023-02-06T20:27:14.264Z,17.58
2023-02-06T20:29:57.284Z,10.15
2023-02-06T20:32:42.877Z,11.75
2023-02-06T20:35:23.869Z,12.50
2023-02-06T20:38:05.998Z,8.88
2023-02-06T20:40:43.807Z,13.63
2023-02-06T20:43:22.410Z,11.90
2023-02-06T20:45:59.968Z,16.15
2023-02-06T20:48:40.012Z,11.68
2023-02-06T20:51:24.625Z,10.10
2023-02-06T20:54:07.726Z,15.32
2023-02-06T20:56:42.492Z,11.77
2023-02-06T20:59:18.398Z,13.07
2023-02-06T21:01:51.639Z,9.50
2023-02-06T21:04:24.589Z,14.23
2023-02-06T21:06:59.334Z,10.73
2023-02-06T21:09:32.569Z,8.52
2023-02-06T21:12:06.075Z,11.80
2023-02-06T21:14:39.324Z,10.10
2023-02-06T21:17:12.683Z,10.70
2023-02-06T21:19:48.246Z,13.70
2023-02-06T21:22:25.335Z,11.60
2023-02-06T21:24:58.416Z,10.68
2023-02-06T21:27:31.787Z,10.57
2023-02-06T21:30:05.819Z,14.23
2023-02-06T21:32:38.686Z,11.52
2023-02-06T21:35:11.937Z,10.02
2023-02-06T21:37:46.411Z,13.80
2023-02-06T21:40:19.906Z,11.50
2023-02-06T21:42:53.227Z,12.48
2023-02-06T21:45:28.612Z,14.68
2023-02-06T21:50:34.920Z,10.40
2023-02-06T21:53:10.231Z,11.10
2023-02-06T21:55:44.204Z,12.63
2023-02-06T21:58:17.132Z,12.63
2023-02-06T22:03:24.250Z,13.10
2023-02-06T22:06:07.512Z,9.80
2023-02-06T22:11:16.688Z,10.13
2023-02-06T22:13:50.103Z,12.23
2023-02-06T22:16:27.747Z,12.68
2023-02-06T22:19:01.372Z,16.88
2023-02-06T22:21:35.655Z,9.60
2023-02-06T22:24:12.481Z,12.02
2023-02-06T22:26:45.973Z,11.07
2023-02-06T22:29:19.346Z,10.80
2023-02-06T22:31:52.300Z,12.05
2023-02-06T22:36:58.046Z,15.07
2023-02-06T22:39:32.317Z,11.07
2023-02-06T22:42:05.435Z,14.32
2023-02-06T22:44:38.296Z,10.35
2023-02-06T22:47:11.255Z,12.82
2023-02-06T22:49:44.329Z,12.15
2023-02-06T22:55:09.655Z,11.95
2023-02-06T22:57:42.500Z,10.63
2023-02-06T23:00:18.417Z,11.18
2023-02-06T23:02:51.365Z,11.85
2023-02-06T23:05:25.048Z,11.30
2023-02-06T23:07:57.972Z,10.10
2023-02-06T23:10:32.050Z,12.02
2023-02-06T23:13:04.999Z,12.25
2023-02-06T23:18:14.093Z,8.50
2023-02-06T23:20:46.807Z,14.70
2023-02-06T23:23:19.810Z,9.02
2023-02-06T23:25:54.593Z,10.93
2023-02-06T23:28:34.474Z,12.15
2023-02-06T23:31:11.811Z,11.57
2023-02-06T23:33:47.956Z,11.02
2023-02-06T23:36:27.128Z,9.52
2023-02-06T23:39:16.038Z,11.63
2023-02-06T23:41:50.930Z,10.05
2023-02-06T23:45:07.958Z,8.32
2023-02-06T23:47:40.897Z,11.55
2023-02-06T23:50:26.633Z,10.30
2023-02-06T23:52:59.591Z,12.15
2023-02-06T23:58:07.349Z,12.93
